createdAt,value
2022-12-24T00:01:27.349Z,13.49
2022-12-24T00:03:32.831Z,13.49
2022-12-24T00:05:40.600Z,13.47
2022-12-24T00:07:46.362Z,13.47
2022-12-24T00:09:51.966Z,13.48
2022-12-24T00:11:57.312Z,13.45
2022-12-24T00:14:05.370Z,13.43
2022-12-24T00:16:10.907Z,13.43
2022-12-24T00:18:16.278Z,13.44
2022-12-24T00:20:22.547Z,13.43
2022-12-24T00:22:28.070Z,13.41
2022-12-24T00:24:33.354Z,13.38
2022-12-24T00:26:39.053Z,13.36
2022-12-24T00:28:45.407Z,13.35
2022-12-24T00:30:53.488Z,13.33
2022-12-24T00:32:58.888Z,13.28
2022-12-24T00:35:04.137Z,13.33
2022-12-24T00:37:10.512Z,13.31
2022-12-24T00:39:15.866Z,13.31
2022-12-24T00:41:29.524Z,13.29
2022-12-24T00:43:35.727Z,13.28
2022-12-24T00:45:41.354Z,13.29
2022-12-24T00:47:49.619Z,13.27
2022-12-24T00:49:55.538Z,13.30
2022-12-24T00:52:00.856Z,13.30
2022-12-24T00:54:06.594Z,13.34
2022-12-24T00:56:12.514Z,13.35
2022-12-24T00:58:17.787Z,13.37
2022-12-24T01:00:23.725Z,13.37
2022-12-24T01:02:29.351Z,13.37
2022-12-24T01:04:50.623Z,13.38
2022-12-24T01:06:56.402Z,13.38
2022-12-24T01:09:01.752Z,13.39
2022-12-24T01:11:09.507Z,13.37
2022-12-24T01:13:14.998Z,13.38
2022-12-24T01:15:20.286Z,13.37
2022-12-24T01:17:25.684Z,13.40
2022-12-24T01:19:30.971Z,13.37
2022-12-24T01:21:39.092Z,13.38
2022-12-24T01:23:44.732Z,13.37
2022-12-24T01:25:50.193Z,13.37
2022-12-24T01:27:55.444Z,13.30
2022-12-24T01:30:01.711Z,13.38
2022-12-24T01:32:07.768Z,13.36
2022-12-24T01:34:13.666Z,13.35
2022-12-24T01:36:19.771Z,13.34
2022-12-24T01:38:27.936Z,13.31
2022-12-24T01:40:45.715Z,13.30
2022-12-24T01:43:04.888Z,13.26
2022-12-24T01:45:44.871Z,13.22
2022-12-24T01:47:51.080Z,13.21
2022-12-24T01:50:01.835Z,13.19
2022-12-24T01:52:10.388Z,13.16
2022-12-24T01:54:26.456Z,13.15
2022-12-24T01:56:35.296Z,13.14
2022-12-24T01:58:43.253Z,13.12
2022-12-24T02:00:49.339Z,13.11
2022-12-24T02:02:57.403Z,13.08
2022-12-24T02:05:10.995Z,13.09
2022-12-24T02:07:16.292Z,13.10
2022-12-24T02:09:24.602Z,13.08
2022-12-24T02:11:30.136Z,13.09
2022-12-24T02:13:35.651Z,13.07
2022-12-24T02:15:56.322Z,13.07
2022-12-24T02:18:12.815Z,13.03
2022-12-24T02:20:59.290Z,13.02
2022-12-24T02:23:30.179Z,12.96
2022-12-24T02:26:05.855Z,12.98
2022-12-24T02:28:25.646Z,12.99
2022-12-24T02:30:42.089Z,12.96
2022-12-24T02:33:16.628Z,12.88
2022-12-24T02:35:31.993Z,12.90
2022-12-24T02:37:43.604Z,12.89
2022-12-24T02:39:55.803Z,12.88
2022-12-24T02:42:11.528Z,12.89
2022-12-24T02:44:17.683Z,12.88
2022-12-24T02:46:31.115Z,12.82
2022-12-24T02:48:39.120Z,12.87
2022-12-24T02:50:57.676Z,12.85
2022-12-24T02:53:03.056Z,12.87
2022-12-24T02:55:15.511Z,12.87
2022-12-24T02:57:34.808Z,12.86
2022-12-24T03:00:04.155Z,12.85
2022-12-24T03:02:29.682Z,12.81
2022-12-24T03:04:50.487Z,12.83
2022-12-24T03:07:09.268Z,12.82
2022-12-24T03:09:27.346Z,12.81
2022-12-24T03:11:32.875Z,12.79
2022-12-24T03:13:38.618Z,12.82
2022-12-24T03:15:46.151Z,12.82
2022-12-24T03:17:58.898Z,12.83
2022-12-24T03:20:04.981Z,12.84
2022-12-24T03:22:15.313Z,12.83
2022-12-24T03:24:21.040Z,12.87
2022-12-24T03:26:29.947Z,12.86
2022-12-24T03:28:36.464Z,12.88
2022-12-24T03:30:43.799Z,12.88
2022-12-24T03:32:53.094Z,12.90
2022-12-24T03:34:59.088Z,12.91
2022-12-24T03:37:04.442Z,12.89
2022-12-24T03:39:12.136Z,12.88
2022-12-24T03:41:17.476Z,12.93
2022-12-24T03:43:22.841Z,12.94
2022-12-24T03:45:28.256Z,12.93
2022-12-24T03:47:34.836Z,12.94
2022-12-24T03:49:42.973Z,12.93
2022-12-24T03:51:48.361Z,12.95
2022-12-24T03:53:56.206Z,12.96
2022-12-24T03:56:01.574Z,12.96
2022-12-24T03:58:07.043Z,12.96
2022-12-24T04:00:14.561Z,12.92
2022-12-24T04:02:20.200Z,12.94
2022-12-24T04:04:25.578Z,12.92
2022-12-24T04:06:33.567Z,12.94
2022-12-24T04:08:39.469Z,12.98
2022-12-24T04:10:44.828Z,12.99
2022-12-24T04:12:50.237Z,13.00
2022-12-24T04:14:55.776Z,12.99
2022-12-24T04:17:01.447Z,13.01
2022-12-24T04:19:06.880Z,13.04
2022-12-24T04:21:13.355Z,13.04
2022-12-24T04:23:21.662Z,13.04
2022-12-24T04:25:27.042Z,13.04
2022-12-24T04:27:32.509Z,13.05
2022-12-24T04:29:38.087Z,13.06
2022-12-24T04:31:43.582Z,13.07
2022-12-24T04:33:49.786Z,13.09
2022-12-24T04:35:55.264Z,13.10
2022-12-24T04:38:00.594Z,13.11
2022-12-24T04:40:10.225Z,13.12
2022-12-24T04:42:15.567Z,13.10
2022-12-24T04:44:20.876Z,13.09
2022-12-24T04:46:30.693Z,13.07
2022-12-24T04:48:36.942Z,13.07
2022-12-24T04:50:43.310Z,13.06
2022-12-24T04:52:48.716Z,13.06
2022-12-24T04:54:54.251Z,13.06
2022-12-24T04:57:02.402Z,13.02
2022-12-24T04:59:07.936Z,12.99
2022-12-24T05:01:18.818Z,12.95
2022-12-24T05:03:24.950Z,12.91
2022-12-24T05:05:30.496Z,12.90
2022-12-24T05:07:37.437Z,12.89
2022-12-24T05:09:43.331Z,12.87
2022-12-24T05:11:48.569Z,12.87
2022-12-24T05:13:56.892Z,12.85
2022-12-24T05:16:02.469Z,12.83
2022-12-24T05:18:08.164Z,12.79
2022-12-24T05:20:13.894Z,12.78
2022-12-24T05:22:31.885Z,12.79
2022-12-24T05:24:49.529Z,12.71
2022-12-24T05:26:58.372Z,12.75
2022-12-24T05:29:09.299Z,12.74
2022-12-24T05:31:15.321Z,12.73
2022-12-24T05:33:20.762Z,12.73
2022-12-24T05:35:26.162Z,12.71
2022-12-24T05:37:31.440Z,12.72
2022-12-24T05:39:36.846Z,12.73
2022-12-24T05:41:42.431Z,12.73
2022-12-24T05:43:48.010Z,12.74
2022-12-24T05:46:01.407Z,12.70
2022-12-24T05:48:08.241Z,12.70
2022-12-24T05:50:14.528Z,12.72
2022-12-24T05:52:20.182Z,12.72
2022-12-24T05:54:25.728Z,12.70
2022-12-24T05:56:31.486Z,12.67
2022-12-24T05:58:36.885Z,12.64
2022-12-24T06:00:42.436Z,12.63
2022-12-24T06:02:50.345Z,12.61
2022-12-24T06:04:55.794Z,12.62
2022-12-24T06:07:01.298Z,12.61
2022-12-24T06:09:07.275Z,12.58
2022-12-24T06:11:16.358Z,12.58
2022-12-24T06:13:21.719Z,12.53
2022-12-24T06:15:27.008Z,12.54
2022-12-24T06:17:32.392Z,12.52
2022-12-24T06:19:40.357Z,12.48
2022-12-24T06:21:46.021Z,12.43
2022-12-24T06:23:51.495Z,12.38
2022-12-24T06:26:01.058Z,12.36
2022-12-24T06:28:06.655Z,12.35
2022-12-24T06:30:14.031Z,12.34
2022-12-24T06:32:19.817Z,12.36
2022-12-24T06:34:25.372Z,12.34
2022-12-24T06:36:33.353Z,12.33
2022-12-24T06:38:39.023Z,12.33
2022-12-24T06:40:45.883Z,12.35
2022-12-24T06:42:51.641Z,12.34
2022-12-24T06:44:59.784Z,12.37
2022-12-24T06:47:07.762Z,12.36
2022-12-24T06:49:13.089Z,12.36
2022-12-24T06:51:21.210Z,12.37
2022-12-24T06:53:29.033Z,12.37
2022-12-24T06:55:35.215Z,12.39
2022-12-24T06:57:40.643Z,12.39
2022-12-24T06:59:45.993Z,12.40
2022-12-24T07:01:51.364Z,12.36
2022-12-24T07:03:56.870Z,12.39
2022-12-24T07:06:03.093Z,12.38
2022-12-24T07:08:08.910Z,12.39
2022-12-24T07:10:19.914Z,12.36
2022-12-24T07:12:25.431Z,12.39
2022-12-24T07:14:31.127Z,12.37
2022-12-24T07:16:36.764Z,12.35
2022-12-24T07:18:42.133Z,12.39
2022-12-24T07:20:47.645Z,12.39
2022-12-24T07:22:53.143Z,12.40
2022-12-24T07:24:58.701Z,12.41
2022-12-24T07:27:06.973Z,12.38
2022-12-24T07:29:12.273Z,12.42
2022-12-24T07:31:17.570Z,12.43
2022-12-24T07:33:23.318Z,12.41
2022-12-24T07:35:28.616Z,12.40
2022-12-24T07:37:34.128Z,12.33
2022-12-24T07:39:39.429Z,12.33
2022-12-24T07:41:44.776Z,12.31
2022-12-24T07:43:54.834Z,12.30
2022-12-24T07:46:01.199Z,12.28
2022-12-24T07:48:07.846Z,12.27
2022-12-24T07:50:14.097Z,12.24
2022-12-24T07:52:19.861Z,12.22
2022-12-24T07:54:25.378Z,12.20
2022-12-24T07:56:30.904Z,12.18
2022-12-24T07:58:36.534Z,12.16
2022-12-24T08:00:44.926Z,12.14
2022-12-24T08:02:50.481Z,12.13
2022-12-24T08:04:55.978Z,12.13
2022-12-24T08:07:01.379Z,12.13
2022-12-24T08:09:07.351Z,12.12
2022-12-24T08:11:13.245Z,12.12
2022-12-24T08:13:19.136Z,12.09
2022-12-24T08:15:24.519Z,12.07
2022-12-24T08:17:32.825Z,12.06
2022-12-24T08:19:38.595Z,12.06
2022-12-24T08:21:44.148Z,12.08
2022-12-24T08:23:50.544Z,12.08
2022-12-24T08:25:56.449Z,12.10
2022-12-24T08:28:02.454Z,12.11
2022-12-24T08:30:16.089Z,12.09
2022-12-24T08:32:24.578Z,12.12
2022-12-24T08:34:32.797Z,12.11
2022-12-24T08:36:38.705Z,12.11
2022-12-24T08:38:44.784Z,12.10
2022-12-24T08:40:52.365Z,12.12
2022-12-24T08:42:58.391Z,12.17
2022-12-24T08:45:05.457Z,12.19
2022-12-24T08:47:14.026Z,12.25
2022-12-24T08:49:20.044Z,12.26
2022-12-24T08:51:27.922Z,12.29
2022-12-24T08:53:33.562Z,12.31
2022-12-24T08:55:39.779Z,12.32
2022-12-24T08:57:45.308Z,12.37
2022-12-24T08:59:50.677Z,12.38
2022-12-24T09:01:56.218Z,12.39
2022-12-24T09:04:01.855Z,12.37
2022-12-24T09:06:07.816Z,12.41
2022-12-24T09:08:15.790Z,12.41
2022-12-24T09:10:21.405Z,12.41
2022-12-24T09:12:26.640Z,12.44
2022-12-24T09:14:32.190Z,12.48
2022-12-24T09:16:37.892Z,12.49
2022-12-24T09:18:43.799Z,12.50
2022-12-24T09:20:53.921Z,12.51
2022-12-24T09:23:02.281Z,12.51
2022-12-24T09:25:11.919Z,12.50
2022-12-24T09:27:17.583Z,12.54
2022-12-24T09:29:23.044Z,12.58
2022-12-24T09:31:28.558Z,12.64
2022-12-24T09:33:39.161Z,12.69
2022-12-24T09:35:44.429Z,12.73
2022-12-24T09:38:02.867Z,12.74
2022-12-24T09:40:25.491Z,12.81
2022-12-24T09:42:44.394Z,12.85
2022-12-24T09:44:59.002Z,12.88
2022-12-24T09:47:13.983Z,12.87
2022-12-24T09:49:26.604Z,12.95
2022-12-24T09:51:39.685Z,12.99
2022-12-24T09:53:54.128Z,13.01
2022-12-24T09:56:07.281Z,13.04
2022-12-24T09:58:23.259Z,13.01
2022-12-24T10:00:32.874Z,13.03
2022-12-24T10:02:38.207Z,13.07
2022-12-24T10:04:45.726Z,13.07
2022-12-24T10:06:57.899Z,13.08
2022-12-24T10:09:17.108Z,13.06
2022-12-24T10:11:32.914Z,13.08
2022-12-24T10:14:03.731Z,13.09
2022-12-24T10:16:21.300Z,13.18
2022-12-24T10:18:39.627Z,13.20
2022-12-24T10:20:56.872Z,13.23
2022-12-24T10:23:11.154Z,13.30
2022-12-24T10:25:26.903Z,13.35
2022-12-24T10:27:45.419Z,13.40
2022-12-24T10:29:59.386Z,13.53
2022-12-24T10:32:29.508Z,13.64
2022-12-24T10:34:43.060Z,13.72
2022-12-24T10:36:48.325Z,13.91
2022-12-24T10:38:54.136Z,14.02
2022-12-24T10:41:03.931Z,14.24
2022-12-24T10:43:20.716Z,14.38
2022-12-24T10:45:32.341Z,14.45
2022-12-24T10:47:42.729Z,14.53
2022-12-24T10:49:53.907Z,14.65
2022-12-24T10:52:05.997Z,14.80
2022-12-24T10:54:26.189Z,14.95
2022-12-24T10:56:32.418Z,15.05
2022-12-24T10:58:46.314Z,15.05
2022-12-24T11:00:57.142Z,15.06
2022-12-24T11:03:33.267Z,15.04
2022-12-24T11:05:41.367Z,15.08
2022-12-24T11:08:03.032Z,15.09
2022-12-24T11:10:11.941Z,15.14
2022-12-24T11:12:25.278Z,15.19
2022-12-24T11:14:39.780Z,15.24
2022-12-24T11:16:55.304Z,15.36
2022-12-24T11:19:04.577Z,15.47
2022-12-24T11:21:11.197Z,15.56
2022-12-24T11:23:20.474Z,15.59
2022-12-24T11:25:31.844Z,15.59
2022-12-24T11:27:46.190Z,15.68
2022-12-24T11:29:59.411Z,15.75
2022-12-24T11:32:22.910Z,15.78
2022-12-24T11:34:33.159Z,15.78
2022-12-24T11:36:39.243Z,15.84
2022-12-24T11:38:44.630Z,15.86
2022-12-24T11:40:53.216Z,15.90
2022-12-24T11:43:06.354Z,15.95
2022-12-24T11:45:27.329Z,15.97
2022-12-24T11:47:38.968Z,15.94
2022-12-24T11:49:44.544Z,15.96
2022-12-24T11:52:31.606Z,15.92
2022-12-24T11:54:48.830Z,15.88
2022-12-24T11:57:00.214Z,15.93
2022-12-24T11:59:19.272Z,15.97
2022-12-24T12:01:33.623Z,16.03
2022-12-24T12:03:45.854Z,16.08
2022-12-24T12:05:52.809Z,16.12
2022-12-24T12:08:11.352Z,16.07
2022-12-24T12:10:26.506Z,15.98
2022-12-24T12:12:40.216Z,15.88
2022-12-24T12:14:53.728Z,15.80
2022-12-24T12:17:15.554Z,15.80
2022-12-24T12:19:26.548Z,15.89
2022-12-24T12:21:43.048Z,15.91
2022-12-24T12:23:54.741Z,15.93
2022-12-24T12:26:04.657Z,15.97
2022-12-24T12:28:24.939Z,15.97
2022-12-24T12:30:32.489Z,15.94
2022-12-24T12:32:51.640Z,15.95
2022-12-24T12:35:12.814Z,15.99
2022-12-24T12:37:27.510Z,15.99
2022-12-24T12:39:34.414Z,16.00
2022-12-24T12:41:56.881Z,16.00
2022-12-24T12:44:28.468Z,16.03
2022-12-24T13:46:00.475Z,15.36
2022-12-24T13:48:31.608Z,15.27
2022-12-24T13:50:42.786Z,15.13
2022-12-24T13:52:55.956Z,15.04
2022-12-24T13:55:15.988Z,14.88
2022-12-24T13:57:35.217Z,14.73
2022-12-24T13:59:42.798Z,14.70
2022-12-24T14:01:51.339Z,14.67
2022-12-24T14:04:02.361Z,14.60
2022-12-24T14:06:13.848Z,14.49
2022-12-24T14:08:42.232Z,14.37
2022-12-24T14:11:02.763Z,14.29
2022-12-24T14:13:11.840Z,14.31
2022-12-24T14:16:06.231Z,14.28
2022-12-24T14:21:00.597Z,14.25
2022-12-24T14:23:08.325Z,14.28
2022-12-24T14:25:21.656Z,14.27
2022-12-24T14:27:35.048Z,14.21
2022-12-24T14:29:52.786Z,14.19
2022-12-24T14:32:04.372Z,14.16
2022-12-24T14:34:16.722Z,14.12
2022-12-24T14:36:26.905Z,14.05
2022-12-24T14:38:33.731Z,14.06
2022-12-24T14:40:53.777Z,14.03
2022-12-24T14:43:14.873Z,14.01
2022-12-24T14:45:36.684Z,14.00
2022-12-24T14:47:55.092Z,13.94
2022-12-24T14:50:36.408Z,13.88
2022-12-24T14:53:05.392Z,13.82
2022-12-24T14:55:38.031Z,13.71
2022-12-24T14:57:43.372Z,13.66
2022-12-24T14:59:52.930Z,13.63
2022-12-24T15:01:58.327Z,13.64
2022-12-24T15:04:06.288Z,13.60
2022-12-24T15:06:17.425Z,13.57
2022-12-24T15:08:31.744Z,13.53
2022-12-24T15:10:41.172Z,13.49
2022-12-24T15:12:47.605Z,13.49
2022-12-24T15:14:53.261Z,13.48
2022-12-24T15:17:03.340Z,13.46
2022-12-24T15:19:21.306Z,13.43
2022-12-24T15:21:34.552Z,13.43
2022-12-24T15:23:47.345Z,13.37
2022-12-24T15:25:52.617Z,13.39
2022-12-24T15:27:58.509Z,13.35
2022-12-24T15:30:17.022Z,13.33
2022-12-24T15:32:24.430Z,13.29
2022-12-24T15:34:33.670Z,13.30
2022-12-24T15:36:42.040Z,13.28
2022-12-24T15:38:51.826Z,13.29
2022-12-24T15:44:18.504Z,13.25
2022-12-24T15:46:28.223Z,13.28
2022-12-24T15:48:38.216Z,13.27
2022-12-24T15:50:49.433Z,13.27
2022-12-24T15:53:19.388Z,13.25
2022-12-24T15:55:32.243Z,13.21
2022-12-24T15:57:38.486Z,13.20
2022-12-24T15:59:44.013Z,13.17
2022-12-24T16:01:51.310Z,13.16
2022-12-24T16:04:02.566Z,13.14
2022-12-24T16:06:11.379Z,13.14
2022-12-24T16:08:42.169Z,13.09
2022-12-24T16:10:50.951Z,13.09
2022-12-24T16:12:56.451Z,13.07
2022-12-24T16:15:03.980Z,13.08
2022-12-24T16:17:23.083Z,12.97
2022-12-24T16:19:39.685Z,13.00
2022-12-24T16:21:46.581Z,12.94
2022-12-24T16:23:58.268Z,12.90
2022-12-24T16:26:03.837Z,12.91
2022-12-24T16:28:21.930Z,12.89
2022-12-24T16:30:28.057Z,12.88
2022-12-24T16:32:38.148Z,12.79
2022-12-24T16:34:44.231Z,12.85
2022-12-24T16:36:50.186Z,12.81
2022-12-24T16:39:10.362Z,12.82
2022-12-24T16:41:15.933Z,12.77
2022-12-24T16:43:33.748Z,12.72
2022-12-24T16:45:40.309Z,12.68
2022-12-24T16:47:45.908Z,12.70
2022-12-24T16:49:51.785Z,12.68
2022-12-24T16:52:06.423Z,12.54
2022-12-24T16:54:16.347Z,12.55
2022-12-24T16:56:22.760Z,12.56
2022-12-24T16:58:29.979Z,12.53
2022-12-24T17:00:36.331Z,12.64
2022-12-24T17:02:43.480Z,12.64
2022-12-24T17:04:50.275Z,12.66
2022-12-24T17:06:55.727Z,12.64
2022-12-24T17:09:00.850Z,12.65
2022-12-24T17:11:09.043Z,12.64
2022-12-24T17:16:46.210Z,12.56
2022-12-24T17:18:57.641Z,12.63
2022-12-24T17:21:07.015Z,12.71
2022-12-24T17:23:14.630Z,12.73
2022-12-24T17:25:20.459Z,12.75
2022-12-24T17:27:29.455Z,12.65
2022-12-24T17:30:09.263Z,12.67
2022-12-24T17:32:17.464Z,12.64
2022-12-24T17:37:49.932Z,12.72
2022-12-24T17:39:55.874Z,12.71
2022-12-24T17:42:01.304Z,12.71
2022-12-24T17:44:09.284Z,12.70
2022-12-24T17:46:18.171Z,12.69
2022-12-24T17:48:23.264Z,12.68
2022-12-24T17:50:28.847Z,12.67
2022-12-24T17:52:34.833Z,12.64
2022-12-24T17:54:40.039Z,12.60
2022-12-24T17:56:45.204Z,12.57
2022-12-24T17:58:50.411Z,12.54
2022-12-24T18:00:59.069Z,12.52
2022-12-24T18:03:04.601Z,12.50
2022-12-24T18:05:10.843Z,12.51
2022-12-24T18:07:16.126Z,12.50
2022-12-24T18:09:21.386Z,12.53
2022-12-24T18:11:30.592Z,12.51
2022-12-24T18:13:36.116Z,12.49
2022-12-24T18:15:43.804Z,12.49
2022-12-24T18:17:55.149Z,12.49
2022-12-24T18:20:00.282Z,12.48
2022-12-24T18:22:05.482Z,12.47
2022-12-24T18:24:12.201Z,12.46
2022-12-24T18:26:19.265Z,12.44
2022-12-24T18:28:24.966Z,12.44
2022-12-24T18:30:30.327Z,12.42
2022-12-24T18:32:35.625Z,12.40
2022-12-24T18:34:43.345Z,12.39
2022-12-24T18:36:54.751Z,12.40
2022-12-24T18:39:00.156Z,12.39
2022-12-24T18:41:07.173Z,12.38
2022-12-24T18:43:12.321Z,12.38
2022-12-24T18:45:17.839Z,12.33
2022-12-24T18:47:23.073Z,12.35
2022-12-24T18:49:28.467Z,12.34
2022-12-24T18:51:38.007Z,12.32
2022-12-24T18:53:43.255Z,12.30
2022-12-24T18:55:48.377Z,12.29
2022-12-24T18:57:53.532Z,12.29
2022-12-24T18:59:58.988Z,12.28
2022-12-24T19:02:04.499Z,12.28
2022-12-24T19:04:10.535Z,12.27
2022-12-24T19:06:16.443Z,12.26
2022-12-24T19:10:49.669Z,12.23
2022-12-24T19:12:55.245Z,12.23
2022-12-24T19:15:00.377Z,12.24
2022-12-24T19:17:05.493Z,12.23
2022-12-24T19:19:12.548Z,12.22
2022-12-24T19:21:19.234Z,12.22
2022-12-24T19:23:26.928Z,12.22
2022-12-24T19:25:31.984Z,12.23
2022-12-24T19:27:37.542Z,12.23
2022-12-24T19:29:42.679Z,12.23
2022-12-24T19:31:48.177Z,12.26
2022-12-24T19:33:56.765Z,12.26
2022-12-24T19:36:09.492Z,12.24
2022-12-24T19:38:14.887Z,12.26
2022-12-24T19:40:23.089Z,12.26
2022-12-24T19:42:28.155Z,12.28
2022-12-24T19:44:33.391Z,12.29
2022-12-24T19:46:39.553Z,12.30
2022-12-24T19:48:45.950Z,12.29
2022-12-24T19:50:51.069Z,12.29
2022-12-24T19:52:56.751Z,12.30
2022-12-24T19:55:01.914Z,12.30
2022-12-24T19:57:09.671Z,12.31
2022-12-24T19:59:15.111Z,12.33
2022-12-24T20:01:41.439Z,12.32
2022-12-24T20:03:47.858Z,12.31
2022-12-24T20:05:52.943Z,12.29
2022-12-24T20:07:58.003Z,12.29
2022-12-24T20:10:03.149Z,12.27
2022-12-24T20:12:11.560Z,12.26
2022-12-24T20:14:17.064Z,12.26
2022-12-24T20:16:23.999Z,12.27
2022-12-24T20:18:29.383Z,12.28
2022-12-24T20:20:34.523Z,12.27
2022-12-24T20:22:40.065Z,12.26
2022-12-24T20:24:45.200Z,12.26
2022-12-24T20:26:50.446Z,12.26
2022-12-24T20:28:58.891Z,12.23
2022-12-24T20:31:04.145Z,12.23
2022-12-24T20:33:09.243Z,12.21
2022-12-24T20:35:14.807Z,12.21
2022-12-24T20:37:20.456Z,12.21
2022-12-24T20:39:25.925Z,12.19
2022-12-24T20:41:33.964Z,12.17
2022-12-24T20:43:47.361Z,12.15
2022-12-24T20:45:59.083Z,12.12
2022-12-24T20:48:04.476Z,12.13
2022-12-24T20:50:11.450Z,12.09
2022-12-24T20:52:16.735Z,12.08
2022-12-24T20:54:22.577Z,12.07
2022-12-24T20:56:29.017Z,12.07
2022-12-24T20:58:34.579Z,12.05
2022-12-24T21:00:39.720Z,12.04
2022-12-24T21:02:47.819Z,12.04
2022-12-24T21:04:58.047Z,12.02
2022-12-24T21:07:06.732Z,12.00
2022-12-24T21:09:12.551Z,11.98
2022-12-24T21:11:30.233Z,11.98
2022-12-24T21:13:35.494Z,11.96
2022-12-24T21:15:43.581Z,11.95
2022-12-24T21:17:52.220Z,11.94
2022-12-24T21:19:58.738Z,11.91
2022-12-24T21:22:04.070Z,11.90
2022-12-24T21:24:11.299Z,11.90
2022-12-24T21:26:16.897Z,11.90
2022-12-24T21:28:22.101Z,11.88
2022-12-24T21:30:28.625Z,11.89
2022-12-24T21:32:35.708Z,11.88
2022-12-24T21:34:44.048Z,11.88
2022-12-24T21:36:49.400Z,11.88
2022-12-24T21:38:55.911Z,11.87
2022-12-24T21:41:03.795Z,11.86
2022-12-24T21:43:10.321Z,11.86
2022-12-24T21:45:15.907Z,11.86
2022-12-24T21:47:21.365Z,11.86
2022-12-24T21:49:39.002Z,11.85
2022-12-24T21:51:49.129Z,11.85
2022-12-24T21:54:06.859Z,11.85
2022-12-24T21:56:14.482Z,11.85
2022-12-24T21:58:17.467Z,11.84
2022-12-24T22:00:27.045Z,11.85
2022-12-24T22:02:33.176Z,11.85
2022-12-24T22:04:38.678Z,11.86
2022-12-24T22:06:59.162Z,11.87
2022-12-24T22:09:17.332Z,11.87
2022-12-24T22:11:35.122Z,11.89
2022-12-24T22:13:40.484Z,11.87
2022-12-24T22:15:48.398Z,11.87
2022-12-24T22:17:53.733Z,11.88
2022-12-24T22:19:59.086Z,11.88
2022-12-24T22:22:07.264Z,11.87
2022-12-24T22:24:12.993Z,11.88
2022-12-24T22:26:21.228Z,11.87
2022-12-24T22:28:26.425Z,11.88
2022-12-24T22:30:32.252Z,11.88
2022-12-24T22:32:37.781Z,11.88
2022-12-24T22:34:43.236Z,11.88
2022-12-24T22:36:48.562Z,11.87
2022-12-24T22:38:56.449Z,11.86
2022-12-24T22:41:01.701Z,11.87
2022-12-24T22:43:07.159Z,11.88
2022-12-24T22:45:21.808Z,11.90
2022-12-24T22:47:27.717Z,11.88
2022-12-24T22:49:33.696Z,11.88
2022-12-24T22:51:39.224Z,11.87
2022-12-24T22:53:44.960Z,11.88
2022-12-24T22:56:01.390Z,11.86
2022-12-24T22:58:06.652Z,11.86
2022-12-24T23:00:20.946Z,11.85
2022-12-24T23:02:28.629Z,11.85
2022-12-24T23:04:39.041Z,11.84
2022-12-24T23:06:45.294Z,11.84
2022-12-24T23:08:50.671Z,11.84
2022-12-24T23:11:06.888Z,11.82
2022-12-24T23:13:28.252Z,11.79
2022-12-24T23:15:34.751Z,11.78
2022-12-24T23:17:40.212Z,11.78
2022-12-24T23:19:48.030Z,11.77
2022-12-24T23:21:53.777Z,11.75
2022-12-24T23:24:01.690Z,11.75
2022-12-24T23:26:11.928Z,11.74
2022-12-24T23:28:17.165Z,11.75
2022-12-24T23:30:22.571Z,11.74
2022-12-24T23:32:27.829Z,11.74
2022-12-24T23:34:33.079Z,11.74
2022-12-24T23:36:38.349Z,11.74
2022-12-24T23:38:43.978Z,11.73
2022-12-24T23:40:49.300Z,11.73
2022-12-24T23:42:57.328Z,11.69
2022-12-24T23:45:02.814Z,11.68
2022-12-24T23:47:08.584Z,11.67
2022-12-24T23:49:17.371Z,11.64
2022-12-24T23:51:26.807Z,11.62
2022-12-24T23:53:32.110Z,11.60
2022-12-24T23:55:37.345Z,11.59
2022-12-24T23:57:42.856Z,11.57
2022-12-24T23:59:51.423Z,11.53
